createdAt,value
2018-01-29T00:01:53.837Z,3.20
2018-01-29T00:04:22.166Z,2.63
2018-01-29T00:06:50.511Z,3.20
2018-01-29T00:09:18.821Z,3.00
2018-01-29T00:11:47.140Z,2.97
2018-01-29T00:14:15.448Z,2.50
2018-01-29T00:16:43.771Z,2.80
2018-01-29T00:19:12.100Z,3.60
2018-01-29T00:21:40.404Z,2.53
2018-01-29T00:24:08.712Z,2.63
2018-01-29T00:26:37.013Z,2.97
2018-01-29T00:29:05.363Z,4.00
2018-01-29T00:31:33.651Z,2.97
2018-01-29T00:34:02.004Z,2.50
2018-01-29T00:36:30.307Z,3.17
2018-01-29T00:38:58.619Z,3.10
2018-01-29T00:41:26.974Z,3.17
2018-01-29T00:43:55.255Z,2.80
2018-01-29T00:46:23.588Z,3.13
2018-01-29T00:48:51.912Z,3.03
2018-01-29T00:51:20.299Z,3.03
2018-01-29T00:53:48.634Z,3.90
2018-01-29T00:56:17.867Z,3.07
2018-01-29T00:58:47.023Z,2.80
2018-01-29T01:01:15.332Z,3.20
2018-01-29T01:03:43.669Z,2.73
2018-01-29T01:06:12.011Z,2.50
2018-01-29T01:08:40.324Z,2.70
2018-01-29T01:11:08.640Z,3.07
2018-01-29T01:13:36.975Z,3.30
2018-01-29T01:16:05.291Z,2.57
2018-01-29T01:18:33.632Z,3.00
2018-01-29T01:21:01.919Z,2.57
2018-01-29T01:23:30.227Z,2.33
2018-01-29T01:25:59.131Z,3.00
2018-01-29T01:28:27.992Z,2.60
2018-01-29T01:30:56.311Z,3.10
2018-01-29T01:33:24.629Z,2.70
2018-01-29T01:35:52.983Z,2.57
2018-01-29T01:38:21.305Z,2.83
2018-01-29T01:40:49.608Z,2.93
2018-01-29T01:43:17.932Z,2.80
2018-01-29T01:45:46.252Z,2.33
2018-01-29T01:48:14.566Z,2.33
2018-01-29T01:50:42.875Z,3.17
2018-01-29T01:53:11.176Z,2.63
2018-01-29T01:55:39.494Z,3.30
2018-01-29T01:58:07.805Z,2.20
2018-01-29T02:00:36.125Z,3.30
2018-01-29T02:03:04.430Z,1.80
2018-01-29T02:05:32.747Z,2.37
2018-01-29T02:08:01.071Z,2.70
2018-01-29T02:10:29.382Z,2.07
2018-01-29T02:12:57.704Z,1.93
2018-01-29T02:15:26.012Z,2.67
2018-01-29T02:17:54.341Z,2.87
2018-01-29T02:20:22.668Z,2.87
2018-01-29T02:22:51.033Z,2.60
2018-01-29T02:25:19.346Z,2.97
2018-01-29T02:27:47.647Z,2.40
2018-01-29T02:30:15.966Z,3.60
2018-01-29T02:32:44.281Z,2.13
2018-01-29T02:35:12.587Z,2.43
2018-01-29T02:37:40.943Z,3.10
2018-01-29T02:40:09.240Z,2.60
2018-01-29T02:42:37.553Z,3.10
2018-01-29T02:45:05.874Z,3.43
2018-01-29T02:47:34.234Z,2.90
2018-01-29T02:50:02.596Z,2.50
2018-01-29T02:52:30.920Z,2.87
2018-01-29T02:54:59.240Z,2.50
2018-01-29T02:57:27.549Z,2.87
2018-01-29T02:59:55.950Z,2.90
2018-01-29T03:02:24.229Z,3.00
2018-01-29T03:04:52.557Z,2.87
2018-01-29T03:07:20.882Z,2.97
2018-01-29T03:09:49.188Z,2.80
2018-01-29T03:12:17.514Z,2.87
2018-01-29T03:14:45.829Z,2.80
2018-01-29T03:17:14.155Z,2.83
2018-01-29T03:19:42.466Z,3.17
2018-01-29T03:22:10.796Z,2.90
2018-01-29T03:24:39.128Z,2.13
2018-01-29T03:27:07.435Z,4.77
2018-01-29T03:29:35.744Z,2.10
2018-01-29T03:32:04.079Z,3.70
2018-01-29T03:34:32.738Z,2.97
2018-01-29T03:37:01.061Z,3.00
2018-01-29T03:39:29.364Z,2.83
2018-01-29T03:41:57.676Z,2.53
2018-01-29T03:44:25.985Z,2.30
2018-01-29T03:46:54.291Z,2.13
2018-01-29T03:49:22.634Z,2.70
2018-01-29T03:51:50.943Z,2.83
2018-01-29T03:54:19.509Z,2.57
2018-01-29T03:56:47.807Z,2.60
2018-01-29T03:59:16.123Z,2.37
2018-01-29T04:01:44.428Z,3.20
2018-01-29T04:04:12.754Z,2.43
2018-01-29T04:06:41.083Z,2.73
2018-01-29T04:09:09.382Z,2.40
2018-01-29T04:11:38.551Z,2.63
2018-01-29T04:14:06.873Z,2.70
2018-01-29T04:16:35.206Z,3.10
2018-01-29T04:19:03.515Z,2.70
2018-01-29T04:21:31.841Z,2.57
2018-01-29T04:24:00.170Z,3.00
2018-01-29T04:26:28.504Z,3.20
2018-01-29T04:28:56.828Z,3.47
2018-01-29T04:31:25.151Z,2.70
2018-01-29T04:33:53.473Z,2.53
2018-01-29T04:36:21.791Z,2.80
2018-01-29T04:38:50.109Z,3.10
2018-01-29T04:41:18.468Z,2.80
2018-01-29T04:43:46.730Z,2.73
2018-01-29T04:46:15.043Z,3.17
2018-01-29T04:48:43.363Z,2.80
2018-01-29T04:51:11.730Z,3.13
2018-01-29T04:53:40.023Z,3.13
2018-01-29T04:56:08.353Z,2.70
2018-01-29T04:58:36.659Z,2.50
2018-01-29T05:01:04.961Z,3.20
2018-01-29T05:03:33.280Z,2.83
2018-01-29T05:06:01.673Z,3.00
2018-01-29T05:08:29.968Z,3.23
2018-01-29T05:10:58.264Z,3.60
2018-01-29T05:13:26.593Z,3.30
2018-01-29T05:15:54.900Z,3.10
2018-01-29T05:18:24.158Z,2.83
2018-01-29T05:20:52.460Z,3.33
2018-01-29T05:23:20.813Z,3.07
2018-01-29T05:25:49.829Z,3.47
2018-01-29T05:28:18.138Z,3.30
2018-01-29T05:30:46.448Z,4.33
2018-01-29T05:33:14.765Z,4.80
2018-01-29T05:38:53.175Z,6.23
2018-01-29T05:41:22.286Z,4.13
2018-01-29T05:43:50.654Z,5.30
2018-01-29T05:46:19.876Z,4.07
2018-01-29T05:48:48.212Z,5.00
2018-01-29T05:51:16.541Z,4.70
2018-01-29T05:53:44.971Z,4.77
2018-01-29T05:56:13.298Z,5.00
2018-01-29T05:58:41.605Z,5.10
2018-01-29T06:01:09.978Z,4.57
2018-01-29T06:03:38.320Z,4.70
2018-01-29T06:06:06.639Z,4.40
2018-01-29T06:08:34.979Z,5.00
2018-01-29T06:11:03.282Z,4.80
2018-01-29T06:13:31.655Z,4.47
2018-01-29T06:15:59.996Z,3.73
2018-01-29T06:18:28.295Z,3.60
2018-01-29T06:20:56.621Z,4.33
2018-01-29T06:23:24.936Z,3.93
2018-01-29T06:25:53.309Z,4.53
2018-01-29T06:28:21.632Z,4.30
2018-01-29T06:30:49.980Z,3.80
2018-01-29T06:33:18.307Z,4.00
2018-01-29T06:35:46.607Z,4.57
2018-01-29T06:38:14.927Z,4.33
2018-01-29T06:40:43.244Z,4.73
2018-01-29T06:43:11.794Z,5.20
2018-01-29T06:45:40.107Z,5.40
2018-01-29T06:48:08.446Z,5.70
2018-01-29T06:50:36.772Z,5.87
2018-01-29T06:53:05.095Z,6.93
2018-01-29T06:55:33.416Z,6.13
2018-01-29T06:58:01.718Z,6.60
2018-01-29T07:00:30.728Z,6.30
2018-01-29T07:02:59.387Z,7.27
2018-01-29T07:05:27.731Z,7.43
2018-01-29T07:07:56.055Z,7.40
2018-01-29T07:10:24.384Z,7.83
2018-01-29T07:12:52.731Z,7.10
2018-01-29T07:15:21.023Z,8.00
2018-01-29T07:17:49.368Z,7.70
2018-01-29T07:20:18.548Z,8.83
2018-01-29T07:22:46.855Z,8.33
2018-01-29T07:25:15.176Z,9.50
2018-01-29T07:27:43.508Z,10.47
2018-01-29T07:30:11.829Z,10.87
2018-01-29T07:32:40.171Z,9.57
2018-01-29T07:35:08.518Z,11.47
2018-01-29T07:37:37.836Z,9.93
2018-01-29T07:40:06.235Z,9.47
2018-01-29T07:42:34.571Z,12.43
2018-01-29T07:45:03.146Z,11.53
2018-01-29T07:47:32.006Z,11.20
2018-01-29T07:50:00.335Z,11.20
2018-01-29T07:52:28.717Z,12.50
2018-01-29T07:54:57.188Z,10.57
2018-01-29T07:57:25.678Z,12.10
2018-01-29T07:59:54.017Z,11.47
2018-01-29T08:02:22.382Z,12.47
2018-01-29T08:04:50.763Z,15.07
2018-01-29T08:07:19.093Z,12.73
2018-01-29T08:12:15.760Z,12.80
2018-01-29T08:14:44.103Z,12.63
2018-01-29T08:17:12.742Z,12.17
2018-01-29T08:19:41.070Z,12.67
2018-01-29T08:22:09.410Z,11.47
2018-01-29T08:24:37.738Z,14.03
2018-01-29T08:27:06.897Z,12.87
2018-01-29T08:29:35.249Z,11.57
2018-01-29T08:32:03.653Z,12.37
2018-01-29T08:34:31.978Z,12.83
2018-01-29T08:37:02.559Z,12.57
2018-01-29T08:39:30.896Z,12.37
2018-01-29T08:41:59.305Z,12.80
2018-01-29T08:44:27.789Z,13.30
2018-01-29T08:46:56.406Z,13.10
2018-01-29T08:49:24.840Z,13.07
2018-01-29T08:51:53.428Z,13.93
2018-01-29T08:54:21.810Z,13.57
2018-01-29T08:56:50.449Z,12.87
2018-01-29T08:59:18.815Z,13.27
2018-01-29T09:01:47.203Z,12.23
2018-01-29T09:04:15.502Z,11.80
2018-01-29T09:06:43.838Z,12.17
2018-01-29T09:09:12.186Z,11.87
2018-01-29T09:11:40.569Z,11.93
2018-01-29T09:14:08.900Z,13.00
2018-01-29T09:16:37.386Z,11.67
2018-01-29T09:19:05.726Z,11.70
2018-01-29T09:21:36.011Z,10.53
2018-01-29T09:24:04.509Z,10.00
2018-01-29T09:26:32.915Z,10.77
2018-01-29T09:29:01.358Z,10.63
2018-01-29T09:31:29.687Z,9.73
2018-01-29T09:33:58.014Z,9.33
2018-01-29T09:36:26.382Z,9.43
2018-01-29T09:38:54.825Z,10.27
2018-01-29T09:41:23.182Z,8.93
2018-01-29T09:43:51.501Z,8.73
2018-01-29T09:46:19.824Z,10.20
2018-01-29T09:48:48.139Z,8.80
2018-01-29T09:51:16.547Z,8.20
2018-01-29T09:53:45.421Z,8.10
2018-01-29T09:56:13.760Z,7.70
2018-01-29T09:58:42.516Z,7.60
2018-01-29T10:01:10.884Z,8.67
2018-01-29T10:03:39.235Z,7.70
2018-01-29T10:06:07.614Z,6.37
2018-01-29T10:08:35.912Z,5.83
2018-01-29T10:11:04.239Z,6.50
2018-01-29T10:13:32.572Z,6.00
2018-01-29T10:16:00.965Z,5.50
2018-01-29T10:18:29.266Z,5.40
2018-01-29T10:20:57.626Z,5.60
2018-01-29T10:23:26.000Z,5.10
2018-01-29T10:25:54.432Z,6.20
2018-01-29T10:28:23.022Z,5.37
2018-01-29T10:30:51.738Z,5.97
2018-01-29T10:33:20.068Z,5.67
2018-01-29T10:35:48.426Z,6.10
2018-01-29T10:38:16.811Z,5.37
2018-01-29T10:40:45.185Z,5.37
2018-01-29T10:43:13.506Z,5.00
2018-01-29T10:45:41.877Z,5.80
2018-01-29T10:48:10.280Z,4.33
2018-01-29T10:50:38.664Z,5.70
2018-01-29T10:53:06.975Z,5.87
2018-01-29T10:55:35.360Z,5.33
2018-01-29T10:58:03.917Z,5.70
2018-01-29T11:03:38.191Z,5.70
2018-01-29T11:06:06.544Z,4.50
2018-01-29T11:08:34.879Z,5.43
2018-01-29T11:11:03.312Z,5.27
2018-01-29T11:13:31.700Z,5.00
2018-01-29T11:16:00.036Z,5.00
2018-01-29T11:18:29.031Z,4.80
2018-01-29T11:23:38.180Z,4.13
2018-01-29T11:26:06.586Z,5.00
2018-01-29T11:28:34.929Z,4.60
2018-01-29T11:31:06.437Z,4.47
2018-01-29T11:33:34.796Z,4.83
2018-01-29T11:36:03.133Z,4.00
2018-01-29T11:38:31.494Z,3.33
2018-01-29T11:43:33.476Z,4.87
2018-01-29T11:51:08.588Z,4.00
2018-01-29T11:56:11.882Z,3.67
2018-01-29T11:58:40.392Z,3.57
2018-01-29T12:01:08.764Z,2.60
2018-01-29T12:06:20.475Z,2.83
2018-01-29T12:08:49.759Z,3.60
2018-01-29T12:11:18.101Z,3.57
2018-01-29T12:16:21.858Z,3.00
2018-01-29T12:18:50.182Z,2.60
2018-01-29T12:24:22.982Z,3.00
2018-01-29T12:26:52.827Z,3.07
2018-01-29T12:29:22.471Z,2.40
2018-01-29T12:31:53.369Z,3.03
2018-01-29T12:34:26.469Z,3.00
2018-01-29T12:36:55.209Z,2.70
2018-01-29T12:39:23.825Z,2.57
2018-01-29T12:41:52.490Z,2.20
2018-01-29T12:44:21.425Z,2.33
2018-01-29T12:46:50.538Z,2.70
2018-01-29T12:49:19.143Z,2.60
2018-01-29T12:51:47.523Z,2.17
2018-01-29T12:54:17.943Z,2.63
2018-01-29T12:56:46.581Z,2.70
2018-01-29T12:59:15.136Z,2.10
2018-01-29T13:01:43.547Z,2.33
2018-01-29T13:06:45.113Z,2.53
2018-01-29T13:09:13.618Z,2.00
2018-01-29T13:11:42.049Z,2.83
2018-01-29T13:14:10.729Z,2.60
2018-01-29T13:16:43.237Z,1.87
2018-01-29T13:19:11.612Z,2.10
2018-01-29T13:21:39.961Z,1.73
2018-01-29T13:24:08.300Z,1.30
2018-01-29T13:29:10.555Z,1.90
2018-01-29T13:31:39.866Z,2.93
2018-01-29T13:34:08.393Z,3.27
2018-01-29T13:41:44.121Z,1.97
2018-01-29T13:44:12.525Z,1.93
2018-01-29T13:46:41.670Z,1.97
2018-01-29T13:49:10.057Z,1.57
2018-01-29T13:51:38.429Z,1.90
2018-01-29T13:54:24.384Z,1.50
2018-01-29T13:56:55.338Z,2.13
2018-01-29T13:59:24.272Z,1.90
2018-01-29T14:04:25.338Z,2.23
2018-01-29T14:06:54.219Z,1.30
2018-01-29T14:09:22.575Z,2.23
2018-01-29T14:11:51.922Z,2.30
2018-01-29T14:16:52.846Z,1.40
2018-01-29T14:19:21.386Z,2.10
2018-01-29T14:21:51.783Z,1.80
2018-01-29T14:24:20.134Z,1.40
2018-01-29T14:26:48.620Z,1.77
2018-01-29T14:29:16.964Z,1.63
2018-01-29T14:31:45.307Z,2.00
2018-01-29T14:34:13.686Z,1.60
2018-01-29T14:36:46.728Z,1.97
2018-01-29T14:39:15.922Z,2.53
2018-01-29T14:41:48.688Z,2.10
2018-01-29T14:44:17.024Z,1.90
2018-01-29T14:46:45.450Z,1.60
2018-01-29T14:49:13.826Z,2.53
2018-01-29T14:51:42.125Z,1.90
2018-01-29T14:54:10.486Z,4.93
2018-01-29T14:56:38.869Z,5.20
2018-01-29T14:59:07.221Z,6.90
2018-01-29T15:01:37.562Z,12.90
2018-01-29T15:04:05.996Z,3.53
2018-01-29T15:09:07.327Z,5.20
2018-01-29T15:11:35.698Z,1.87
2018-01-29T15:14:04.374Z,2.10
2018-01-29T15:16:32.714Z,2.90
2018-01-29T15:19:01.133Z,7.60
2018-01-29T15:24:03.028Z,2.30
2018-01-29T15:26:31.369Z,4.00
2018-01-29T15:28:59.764Z,5.17
2018-01-29T15:31:28.120Z,5.87
2018-01-29T15:33:56.482Z,5.40
2018-01-29T15:36:24.947Z,3.90
2018-01-29T15:38:56.316Z,3.77
2018-01-29T15:41:24.773Z,2.60
2018-01-29T15:43:53.186Z,2.50
2018-01-29T15:46:21.513Z,2.77
2018-01-29T15:48:49.851Z,3.37
2018-01-29T15:51:18.176Z,6.17
2018-01-29T15:53:46.507Z,5.17
2018-01-29T15:56:14.924Z,4.57
2018-01-29T15:58:43.279Z,2.70
2018-01-29T16:06:18.212Z,4.30
2018-01-29T16:08:47.434Z,3.30
2018-01-29T16:11:15.891Z,3.40
2018-01-29T16:13:46.586Z,3.60
2018-01-29T16:16:15.167Z,3.40
2018-01-29T16:18:43.541Z,5.00
2018-01-29T16:21:11.987Z,4.20
2018-01-29T16:23:40.306Z,2.70
2018-01-29T16:26:08.687Z,3.80
2018-01-29T16:28:37.173Z,3.10
2018-01-29T16:31:05.587Z,4.73
2018-01-29T16:36:11.253Z,3.60
2018-01-29T16:43:44.783Z,3.20
2018-01-29T16:46:13.116Z,3.10
2018-01-29T16:51:13.921Z,3.60
2018-01-29T16:53:42.429Z,4.40
2018-01-29T16:58:43.267Z,4.13
2018-01-29T17:01:12.672Z,3.70
2018-01-29T17:03:42.085Z,3.60
2018-01-29T17:08:42.933Z,4.17
2018-01-29T17:11:12.239Z,4.33
2018-01-29T17:13:40.545Z,4.07
2018-01-29T17:16:08.858Z,4.03
2018-01-29T17:18:37.310Z,4.33
2018-01-29T17:21:09.721Z,5.00
2018-01-29T17:23:38.196Z,4.50
2018-01-29T17:28:40.208Z,4.43
2018-01-29T17:31:09.505Z,4.30
2018-01-29T17:33:37.877Z,4.70
2018-01-29T17:36:06.365Z,4.37
2018-01-29T17:38:34.727Z,5.70
2018-01-29T17:41:03.052Z,5.60
2018-01-29T17:43:31.350Z,4.90
2018-01-29T17:45:59.906Z,6.10
2018-01-29T17:48:29.186Z,5.30
2018-01-29T17:50:57.706Z,5.30
2018-01-29T17:53:26.053Z,5.47
2018-01-29T17:55:54.472Z,5.53
2018-01-29T17:58:22.851Z,6.50
2018-01-29T18:00:51.642Z,5.20
2018-01-29T18:03:21.564Z,6.20
2018-01-29T18:05:49.916Z,5.87
2018-01-29T18:08:19.503Z,5.80
2018-01-29T18:10:47.818Z,5.50
2018-01-29T18:13:16.153Z,7.10
2018-01-29T18:15:44.461Z,6.10
2018-01-29T18:18:12.900Z,7.23
2018-01-29T18:20:41.331Z,6.90
2018-01-29T18:23:09.681Z,7.33
2018-01-29T18:25:38.295Z,7.07
2018-01-29T18:28:07.157Z,6.70
2018-01-29T18:30:35.579Z,6.70
2018-01-29T18:33:04.817Z,8.60
2018-01-29T18:35:33.166Z,7.70
2018-01-29T18:38:05.982Z,9.10
2018-01-29T18:40:34.553Z,7.50
2018-01-29T18:43:03.002Z,9.90
2018-01-29T18:45:31.340Z,10.00
2018-01-29T18:47:59.656Z,8.97
2018-01-29T18:50:30.513Z,9.20
2018-01-29T18:52:58.812Z,9.83
2018-01-29T18:55:27.342Z,10.93
2018-01-29T18:57:55.645Z,9.67
2018-01-29T19:00:24.020Z,9.40
2018-01-29T19:02:55.983Z,10.67
2018-01-29T19:05:24.406Z,10.60
2018-01-29T19:07:52.785Z,10.40
2018-01-29T19:10:21.120Z,10.27
2018-01-29T19:12:49.483Z,11.40
2018-01-29T19:15:17.816Z,11.40
2018-01-29T19:17:52.546Z,11.40
2018-01-29T19:20:20.881Z,11.53
2018-01-29T19:22:49.219Z,11.90
2018-01-29T19:25:17.602Z,11.43
2018-01-29T19:27:46.055Z,12.77
2018-01-29T19:30:14.375Z,11.73
2018-01-29T19:32:42.734Z,11.23
2018-01-29T19:35:11.115Z,12.33
2018-01-29T19:37:39.438Z,11.00
2018-01-29T19:40:07.824Z,11.87
2018-01-29T19:42:36.178Z,11.33
2018-01-29T19:45:04.504Z,13.10
2018-01-29T19:47:33.405Z,9.80
2018-01-29T19:50:01.753Z,9.87
2018-01-29T19:52:30.177Z,9.73
2018-01-29T19:54:58.508Z,9.07
2018-01-29T19:57:26.835Z,9.30
2018-01-29T19:59:55.257Z,9.67
2018-01-29T20:02:23.559Z,9.40
2018-01-29T20:04:51.889Z,8.97
2018-01-29T20:07:20.239Z,8.37
2018-01-29T20:09:48.571Z,10.03
2018-01-29T20:12:16.900Z,8.63
2018-01-29T20:14:45.243Z,9.97
2018-01-29T20:17:13.605Z,9.23
2018-01-29T20:19:41.963Z,7.60
2018-01-29T20:22:10.332Z,9.60
2018-01-29T20:24:38.653Z,9.77
2018-01-29T20:27:09.158Z,9.87
2018-01-29T20:29:37.533Z,10.60
2018-01-29T20:32:06.225Z,11.67
2018-01-29T20:34:35.026Z,12.00
2018-01-29T20:37:04.380Z,11.67
2018-01-29T20:39:32.873Z,10.00
2018-01-29T20:42:01.228Z,11.37
2018-01-29T20:44:29.578Z,12.57
2018-01-29T20:46:57.928Z,11.83
2018-01-29T20:49:26.325Z,12.10
2018-01-29T20:51:54.842Z,11.63
2018-01-29T20:54:23.203Z,11.33
2018-01-29T20:56:51.765Z,9.53
2018-01-29T20:59:20.188Z,10.47
2018-01-29T21:01:48.524Z,12.40
2018-01-29T21:04:16.870Z,11.80
2018-01-29T21:06:45.224Z,10.67
2018-01-29T21:09:13.583Z,10.30
2018-01-29T21:11:41.917Z,9.60
2018-01-29T21:14:10.245Z,9.17
2018-01-29T21:16:39.076Z,7.23
2018-01-29T21:19:08.671Z,7.40
2018-01-29T21:21:37.956Z,8.67
2018-01-29T21:24:06.303Z,6.93
2018-01-29T21:26:34.623Z,5.77
2018-01-29T21:29:02.967Z,6.37
2018-01-29T21:31:31.276Z,5.60
2018-01-29T21:33:59.607Z,6.50
2018-01-29T21:39:15.024Z,5.17
2018-01-29T21:41:43.345Z,5.23
2018-01-29T21:44:11.696Z,5.90
2018-01-29T21:46:40.005Z,5.67
2018-01-29T21:49:08.331Z,4.53
2018-01-29T21:51:36.680Z,5.00
2018-01-29T21:54:05.100Z,5.27
2018-01-29T21:56:33.490Z,4.60
2018-01-29T21:59:01.789Z,5.00
2018-01-29T22:01:30.125Z,5.30
2018-01-29T22:03:58.442Z,4.43
2018-01-29T22:06:26.770Z,4.00
2018-01-29T22:08:55.119Z,3.63
2018-01-29T22:11:23.574Z,4.23
2018-01-29T22:13:51.915Z,2.60
2018-01-29T22:16:20.251Z,4.53
2018-01-29T22:18:48.555Z,3.50
2018-01-29T22:21:16.947Z,3.67
2018-01-29T22:23:45.387Z,2.80
2018-01-29T22:26:13.765Z,3.57
2018-01-29T22:28:42.168Z,2.60
2018-01-29T22:31:10.485Z,3.70
2018-01-29T22:33:38.792Z,2.47
2018-01-29T22:36:07.203Z,2.47
2018-01-29T22:38:35.590Z,2.10
2018-01-29T22:41:03.911Z,2.70
2018-01-29T22:43:32.247Z,3.10
2018-01-29T22:46:00.571Z,3.83
2018-01-29T22:48:29.019Z,3.47
2018-01-29T22:50:57.367Z,3.33
2018-01-29T22:53:25.722Z,3.33
2018-01-29T22:55:54.064Z,2.93
2018-01-29T22:58:22.367Z,3.20
2018-01-29T23:00:51.716Z,3.60
2018-01-29T23:03:20.040Z,3.13
2018-01-29T23:05:48.356Z,3.20
2018-01-29T23:08:16.664Z,2.47
2018-01-29T23:10:44.976Z,2.50
2018-01-29T23:13:13.360Z,3.03
2018-01-29T23:15:41.737Z,2.40
2018-01-29T23:18:10.001Z,1.70
2018-01-29T23:20:38.358Z,2.20
2018-01-29T23:23:06.658Z,1.60
2018-01-29T23:25:34.988Z,2.20
2018-01-29T23:28:03.280Z,2.07
2018-01-29T23:30:31.617Z,1.50
2018-01-29T23:32:59.959Z,1.40
2018-01-29T23:35:28.292Z,1.40
2018-01-29T23:37:56.577Z,1.77
2018-01-29T23:40:24.949Z,1.37
2018-01-29T23:42:53.270Z,1.50
2018-01-29T23:45:21.591Z,1.33
2018-01-29T23:47:49.896Z,1.33
2018-01-29T23:50:18.230Z,1.53
2018-01-29T23:52:46.546Z,1.50
2018-01-29T23:55:14.864Z,1.27
2018-01-29T23:57:43.291Z,1.60
